createdAt,value
2022-10-22T00:00:05.689Z,15.35
2022-10-22T00:01:38.828Z,14.15
2022-10-22T00:03:11.203Z,12.38
2022-10-22T00:06:19.698Z,12.82
2022-10-22T00:07:51.327Z,13.82
2022-10-22T00:09:22.960Z,12.90
2022-10-22T00:10:56.061Z,16.83
2022-10-22T00:12:27.936Z,13.20
2022-10-22T00:13:59.597Z,12.75
2022-10-22T00:15:31.209Z,15.13
2022-10-22T00:17:04.221Z,11.80
2022-10-22T00:18:38.466Z,16.38
2022-10-22T00:20:10.969Z,12.25
2022-10-22T00:21:42.600Z,14.23
2022-10-22T00:23:14.198Z,14.80
2022-10-22T00:24:45.798Z,13.95
2022-10-22T00:26:18.740Z,13.13
2022-10-22T00:27:50.413Z,12.77
2022-10-22T00:29:23.580Z,12.55
2022-10-22T00:30:56.685Z,13.52
2022-10-22T00:32:28.294Z,13.70
2022-10-22T00:34:01.433Z,13.45
2022-10-22T00:35:33.449Z,13.30
2022-10-22T00:37:05.239Z,14.18
2022-10-22T00:38:36.838Z,14.57
2022-10-22T00:40:10.231Z,13.23
2022-10-22T00:41:43.717Z,13.52
2022-10-22T00:43:17.797Z,12.07
2022-10-22T00:45:04.627Z,14.02
2022-10-22T00:46:36.222Z,13.10
2022-10-22T00:48:10.531Z,12.77
2022-10-22T00:49:42.891Z,14.40
2022-10-22T00:51:14.795Z,12.70
2022-10-22T00:52:47.479Z,12.13
2022-10-22T00:54:19.126Z,15.10
2022-10-22T00:55:53.663Z,12.75
2022-10-22T00:57:27.729Z,14.25
2022-10-22T00:59:02.201Z,14.68
2022-10-22T01:00:33.955Z,13.88
2022-10-22T01:02:05.692Z,14.52
2022-10-22T01:03:37.514Z,14.15
2022-10-22T01:05:09.842Z,13.13
2022-10-22T01:06:41.585Z,14.00
2022-10-22T01:08:25.238Z,14.43
2022-10-22T01:10:07.923Z,12.02
2022-10-22T01:11:52.618Z,11.82
2022-10-22T01:13:36.592Z,12.75
2022-10-22T01:15:24.509Z,15.65
2022-10-22T01:17:05.076Z,14.05
2022-10-22T01:18:45.405Z,14.48
2022-10-22T01:20:37.818Z,18.40
2022-10-22T01:22:16.782Z,14.23
2022-10-22T01:24:17.205Z,13.13
2022-10-22T01:25:58.397Z,13.55
2022-10-22T01:27:49.104Z,14.63
2022-10-22T01:29:27.523Z,13.18
2022-10-22T01:31:01.613Z,13.88
2022-10-22T01:32:39.820Z,15.60
2022-10-22T01:34:14.164Z,12.82
2022-10-22T01:35:46.015Z,15.90
2022-10-22T01:37:20.633Z,17.98
2022-10-22T01:38:53.413Z,12.45
2022-10-22T01:40:26.266Z,16.67
2022-10-22T01:41:58.281Z,17.80
2022-10-22T01:43:29.872Z,13.15
2022-10-22T01:45:10.138Z,12.45
2022-10-22T01:46:41.901Z,15.07
2022-10-22T01:48:34.712Z,13.15
2022-10-22T01:50:18.583Z,16.67
2022-10-22T01:52:02.845Z,13.55
2022-10-22T01:55:25.570Z,17.90
2022-10-22T01:57:07.387Z,12.98
2022-10-22T01:58:44.128Z,16.33
2022-10-22T02:00:18.975Z,13.80
2022-10-22T02:01:59.524Z,17.33
2022-10-22T02:03:39.074Z,13.70
2022-10-22T02:05:16.655Z,14.82
2022-10-22T02:06:51.453Z,14.07
2022-10-22T02:08:27.045Z,14.00
2022-10-22T02:10:00.600Z,15.20
2022-10-22T02:11:32.367Z,14.10
2022-10-22T02:13:08.263Z,15.82
2022-10-22T02:14:44.004Z,14.75
2022-10-22T02:16:23.811Z,16.83
2022-10-22T02:17:58.338Z,15.27
2022-10-22T02:19:38.520Z,14.60
2022-10-22T02:21:10.442Z,13.90
2022-10-22T02:22:42.871Z,13.80
2022-10-22T02:24:15.011Z,14.85
2022-10-22T02:25:52.157Z,16.10
2022-10-22T02:27:30.334Z,16.67
2022-10-22T02:29:08.344Z,12.00
2022-10-22T02:30:44.324Z,15.18
2022-10-22T02:32:22.985Z,13.52
2022-10-22T02:33:57.804Z,13.63
2022-10-22T02:35:30.601Z,14.88
2022-10-22T02:37:04.481Z,16.30
2022-10-22T02:38:37.205Z,15.20
2022-10-22T02:40:10.480Z,13.40
2022-10-22T02:41:42.489Z,14.27
2022-10-22T02:43:14.124Z,17.13
2022-10-22T02:44:45.754Z,15.20
2022-10-22T02:46:17.449Z,14.30
2022-10-22T02:47:50.569Z,15.55
2022-10-22T02:49:22.271Z,16.60
2022-10-22T02:50:53.847Z,13.48
2022-10-22T02:52:25.433Z,14.45
2022-10-22T02:53:57.073Z,13.80
2022-10-22T02:55:28.826Z,13.68
2022-10-22T02:57:00.435Z,14.18
2022-10-22T02:58:32.023Z,15.30
2022-10-22T03:00:04.648Z,18.65
2022-10-22T03:01:36.428Z,15.65
2022-10-22T03:03:09.434Z,16.92
2022-10-22T03:04:41.057Z,15.48
2022-10-22T03:06:14.046Z,14.07
2022-10-22T03:07:45.755Z,18.95
2022-10-22T03:09:21.262Z,18.45
2022-10-22T03:10:55.740Z,18.52
2022-10-22T03:12:27.454Z,16.05
2022-10-22T03:13:59.065Z,14.88
2022-10-22T03:15:30.702Z,17.48
2022-10-22T03:17:02.336Z,17.55
2022-10-22T03:18:35.420Z,15.90
2022-10-22T03:20:08.113Z,15.32
2022-10-22T03:21:42.660Z,14.52
2022-10-22T03:23:16.818Z,16.20
2022-10-22T03:24:51.049Z,18.35
2022-10-22T03:26:23.725Z,14.65
2022-10-22T03:28:00.794Z,13.95
2022-10-22T03:29:35.994Z,14.73
2022-10-22T03:31:07.677Z,16.00
2022-10-22T03:32:39.381Z,13.98
2022-10-22T03:34:13.412Z,14.35
2022-10-22T03:35:47.397Z,15.32
2022-10-22T03:37:19.505Z,17.85
2022-10-22T03:38:51.207Z,16.42
2022-10-22T03:40:23.000Z,15.55
2022-10-22T03:41:54.869Z,15.32
2022-10-22T03:43:26.779Z,15.02
2022-10-22T03:44:58.354Z,16.15
2022-10-22T03:46:30.069Z,12.80
2022-10-22T03:48:01.768Z,15.05
2022-10-22T03:49:35.225Z,14.85
2022-10-22T03:51:07.582Z,14.85
2022-10-22T03:52:40.178Z,15.45
2022-10-22T03:54:11.775Z,16.20
2022-10-22T03:55:43.389Z,16.05
2022-10-22T03:57:15.227Z,15.70
2022-10-22T03:58:46.819Z,17.08
2022-10-22T04:00:18.857Z,18.60
2022-10-22T04:01:50.496Z,13.82
2022-10-22T04:03:22.072Z,15.52
2022-10-22T04:04:55.037Z,14.35
2022-10-22T04:06:26.684Z,15.05
2022-10-22T04:07:58.270Z,16.75
2022-10-22T04:09:31.213Z,17.48
2022-10-22T04:11:03.217Z,17.63
2022-10-22T04:12:34.821Z,18.10
2022-10-22T04:14:06.419Z,14.35
2022-10-22T04:15:38.138Z,13.48
2022-10-22T04:17:09.842Z,15.98
2022-10-22T04:18:43.003Z,16.40
2022-10-22T04:20:16.054Z,16.80
2022-10-22T04:21:47.634Z,17.13
2022-10-22T04:23:19.368Z,15.85
2022-10-22T04:26:27.517Z,16.95
2022-10-22T04:27:59.170Z,16.70
2022-10-22T04:29:30.772Z,15.45
2022-10-22T04:31:08.276Z,17.27
2022-10-22T04:32:39.852Z,13.85
2022-10-22T04:34:11.507Z,26.27
2022-10-22T04:35:44.614Z,16.15
2022-10-22T04:37:16.243Z,16.08
2022-10-22T04:38:51.990Z,15.05
2022-10-22T04:40:23.727Z,17.48
2022-10-22T04:41:55.323Z,14.50
2022-10-22T04:43:27.032Z,15.90
2022-10-22T04:44:58.627Z,14.27
2022-10-22T04:46:33.696Z,17.17
2022-10-22T04:48:06.011Z,14.32
2022-10-22T04:49:37.628Z,16.67
2022-10-22T04:51:13.138Z,17.50
2022-10-22T04:52:44.729Z,14.07
2022-10-22T04:54:16.398Z,16.38
2022-10-22T04:55:48.011Z,14.70
2022-10-22T04:57:19.641Z,16.63
2022-10-22T04:58:53.846Z,17.17
2022-10-22T05:00:25.452Z,15.25
2022-10-22T05:01:57.058Z,14.63
2022-10-22T05:03:28.652Z,15.73
2022-10-22T05:05:00.245Z,15.73
2022-10-22T05:06:35.233Z,17.70
2022-10-22T05:08:06.811Z,16.25
2022-10-22T05:09:38.461Z,15.10
2022-10-22T05:11:14.484Z,16.48
2022-10-22T05:12:46.073Z,19.30
2022-10-22T05:14:19.483Z,16.42
2022-10-22T05:15:51.102Z,15.40
2022-10-22T05:17:22.710Z,14.63
2022-10-22T05:18:54.392Z,16.38
2022-10-22T05:20:26.026Z,16.73
2022-10-22T05:22:01.138Z,14.80
2022-10-22T05:23:32.745Z,16.50
2022-10-22T05:25:05.049Z,16.77
2022-10-22T05:26:36.796Z,14.23
2022-10-22T05:28:08.390Z,17.92
2022-10-22T05:29:40.411Z,17.38
2022-10-22T05:31:13.503Z,25.35
2022-10-22T05:32:45.182Z,16.08
2022-10-22T05:34:17.263Z,18.60
2022-10-22T05:35:49.064Z,15.32
2022-10-22T05:37:22.032Z,17.00
2022-10-22T05:38:54.196Z,16.52
2022-10-22T05:40:30.917Z,16.88
2022-10-22T05:42:03.157Z,15.55
2022-10-22T05:43:35.266Z,15.13
2022-10-22T05:45:08.170Z,23.83
2022-10-22T05:46:40.516Z,15.48
2022-10-22T05:48:12.130Z,15.90
2022-10-22T05:49:43.736Z,16.67
2022-10-22T05:51:15.461Z,17.85
2022-10-22T05:52:48.434Z,17.63
2022-10-22T05:54:22.063Z,17.15
2022-10-22T05:55:53.673Z,16.75
2022-10-22T05:57:25.304Z,17.58
2022-10-22T05:58:57.017Z,18.98
2022-10-22T06:00:28.713Z,15.98
2022-10-22T06:02:00.425Z,14.63
2022-10-22T06:03:32.799Z,15.70
2022-10-22T06:05:04.713Z,16.77
2022-10-22T06:06:39.513Z,15.90
2022-10-22T06:08:18.214Z,15.43
2022-10-22T06:09:51.092Z,16.45
2022-10-22T06:11:23.797Z,14.55
2022-10-22T06:12:55.516Z,15.75
2022-10-22T06:14:28.083Z,18.25
2022-10-22T06:15:59.661Z,19.73
2022-10-22T06:17:31.367Z,16.92
2022-10-22T06:19:03.281Z,18.45
2022-10-22T06:20:35.242Z,14.45
2022-10-22T06:22:06.884Z,17.85
2022-10-22T06:23:40.837Z,18.08
2022-10-22T06:25:14.086Z,16.50
2022-10-22T06:26:58.614Z,16.23
2022-10-22T06:28:30.419Z,15.60
2022-10-22T06:30:02.224Z,19.20
2022-10-22T06:31:36.904Z,16.95
2022-10-22T06:33:08.530Z,16.88
2022-10-22T06:34:40.197Z,18.33
2022-10-22T06:36:14.157Z,20.35
2022-10-22T06:37:47.415Z,16.73
2022-10-22T06:39:20.441Z,17.48
2022-10-22T06:40:52.055Z,16.50
2022-10-22T06:42:23.841Z,16.08
2022-10-22T06:43:57.176Z,16.77
2022-10-22T06:45:28.971Z,18.10
2022-10-22T06:47:00.638Z,14.80
2022-10-22T06:48:32.292Z,14.13
2022-10-22T06:50:04.320Z,14.98
2022-10-22T06:51:35.951Z,15.48
2022-10-22T06:53:07.711Z,15.43
2022-10-22T06:54:43.461Z,14.32
2022-10-22T06:56:17.519Z,13.70
2022-10-22T06:57:49.375Z,19.60
2022-10-22T06:59:21.000Z,14.80
2022-10-22T07:01:01.032Z,15.95
2022-10-22T07:04:05.459Z,15.20
2022-10-22T07:05:37.273Z,14.80
2022-10-22T07:07:08.901Z,13.93
2022-10-22T07:08:41.676Z,15.02
2022-10-22T07:10:14.994Z,19.15
2022-10-22T07:11:46.758Z,13.50
2022-10-22T07:13:18.403Z,17.23
2022-10-22T07:14:50.111Z,13.32
2022-10-22T07:16:22.177Z,14.30
2022-10-22T07:17:53.821Z,15.77
2022-10-22T07:19:25.448Z,14.32
2022-10-22T07:20:57.234Z,12.93
2022-10-22T07:22:28.977Z,14.23
2022-10-22T07:24:00.763Z,13.10
2022-10-22T07:25:33.734Z,14.57
2022-10-22T07:27:09.378Z,13.10
2022-10-22T07:28:43.837Z,13.32
2022-10-22T07:30:15.571Z,12.23
2022-10-22T07:31:47.186Z,12.65
2022-10-22T07:33:18.775Z,13.02
2022-10-22T07:34:50.393Z,15.60
2022-10-22T07:36:22.036Z,11.85
2022-10-22T07:37:53.719Z,10.85
2022-10-22T07:39:25.895Z,11.52
2022-10-22T07:40:59.038Z,14.85
2022-10-22T07:42:30.700Z,14.30
2022-10-22T07:44:02.472Z,12.07
2022-10-22T07:45:34.115Z,12.93
2022-10-22T07:47:05.835Z,14.90
2022-10-22T07:48:37.926Z,13.07
2022-10-22T07:50:09.959Z,13.60
2022-10-22T07:51:41.789Z,14.05
2022-10-22T07:53:13.406Z,15.48
2022-10-22T07:54:45.013Z,14.23
2022-10-22T07:56:18.037Z,15.05
2022-10-22T07:57:50.818Z,13.40
2022-10-22T07:59:22.617Z,17.10
2022-10-22T08:00:56.301Z,12.20
2022-10-22T08:02:27.911Z,14.60
2022-10-22T08:03:59.642Z,22.42
2022-10-22T08:05:31.313Z,12.38
2022-10-22T08:07:02.956Z,13.45
2022-10-22T08:08:34.836Z,13.95
2022-10-22T08:10:08.099Z,11.68
2022-10-22T08:11:41.083Z,14.10
2022-10-22T08:13:12.808Z,11.77
2022-10-22T08:14:44.410Z,13.85
2022-10-22T08:16:16.057Z,12.05
2022-10-22T08:17:47.712Z,13.13
2022-10-22T08:19:21.112Z,11.40
2022-10-22T08:20:53.493Z,13.45
2022-10-22T08:22:25.166Z,10.95
2022-10-22T08:23:56.827Z,16.08
2022-10-22T08:25:28.526Z,12.02
2022-10-22T08:27:01.503Z,10.13
2022-10-22T08:28:36.894Z,10.38
2022-10-22T08:30:09.721Z,10.93
2022-10-22T08:31:41.385Z,12.70
2022-10-22T08:33:12.996Z,13.32
2022-10-22T08:34:44.600Z,12.25
2022-10-22T08:36:16.226Z,10.60
2022-10-22T08:37:47.865Z,13.07
2022-10-22T08:39:19.480Z,10.07
2022-10-22T08:40:54.610Z,13.68
2022-10-22T08:42:49.321Z,10.32
2022-10-22T08:44:46.673Z,9.02
2022-10-22T08:46:44.762Z,12.35
2022-10-22T08:48:28.113Z,10.77
2022-10-22T08:50:00.484Z,11.93
2022-10-22T08:51:35.829Z,11.52
2022-10-22T08:53:13.894Z,12.88
2022-10-22T08:54:51.520Z,15.88
2022-10-22T08:56:23.664Z,9.82
2022-10-22T08:58:01.966Z,12.60
2022-10-22T08:59:42.105Z,10.75
2022-10-22T09:01:16.400Z,8.00
2022-10-22T09:02:59.388Z,11.52
2022-10-22T09:04:37.734Z,10.73
2022-10-22T09:06:14.006Z,12.18
2022-10-22T09:07:50.048Z,10.50
2022-10-22T09:09:23.934Z,13.00
2022-10-22T09:11:01.500Z,13.77
2022-10-22T09:12:33.562Z,11.27
2022-10-22T09:14:11.951Z,11.30
2022-10-22T09:15:46.490Z,13.15
2022-10-22T09:17:27.128Z,12.23
2022-10-22T09:19:07.755Z,12.38
2022-10-22T09:20:49.293Z,13.40
2022-10-22T09:22:30.305Z,10.73
2022-10-22T09:24:11.490Z,13.93
2022-10-22T09:25:45.173Z,10.65
2022-10-22T09:27:19.507Z,8.70
2022-10-22T09:28:52.049Z,9.90
2022-10-22T09:30:26.964Z,9.95
2022-10-22T09:31:58.674Z,10.02
2022-10-22T09:33:31.703Z,8.27
2022-10-22T09:35:03.565Z,11.25
2022-10-22T09:36:37.820Z,11.23
2022-10-22T09:38:09.477Z,10.68
2022-10-22T09:39:44.853Z,11.32
2022-10-22T09:41:17.718Z,10.65
2022-10-22T09:42:49.697Z,10.30
2022-10-22T09:44:21.585Z,13.93
2022-10-22T09:45:59.436Z,10.80
2022-10-22T09:47:43.668Z,14.25
2022-10-22T09:49:33.277Z,11.23
2022-10-22T09:51:12.868Z,8.98
2022-10-22T09:52:44.752Z,9.02
2022-10-22T09:54:19.654Z,9.48
2022-10-22T09:55:53.711Z,10.20
2022-10-22T09:57:27.385Z,8.93
2022-10-22T09:58:59.245Z,11.27
2022-10-22T10:00:30.996Z,11.38
2022-10-22T10:02:26.652Z,9.73
2022-10-22T10:04:09.795Z,9.80
2022-10-22T10:05:43.940Z,9.43
2022-10-22T10:07:18.931Z,9.90
2022-10-22T10:08:50.933Z,7.57
2022-10-22T10:10:34.629Z,8.65
2022-10-22T10:12:17.025Z,10.23
2022-10-22T10:13:59.733Z,12.00
2022-10-22T10:15:40.097Z,7.60
2022-10-22T10:17:24.117Z,11.10
2022-10-22T10:19:17.424Z,11.60
2022-10-22T10:20:57.484Z,8.27
2022-10-22T10:22:47.081Z,9.02
2022-10-22T10:24:27.633Z,11.63
2022-10-22T10:26:06.341Z,12.85
2022-10-22T10:27:42.883Z,11.27
2022-10-22T10:29:29.781Z,11.65
2022-10-22T10:31:11.842Z,11.57
2022-10-22T10:32:55.134Z,9.45
2022-10-22T10:34:35.476Z,10.07
2022-10-22T10:36:16.633Z,8.20
2022-10-22T10:38:02.343Z,8.27
2022-10-22T10:39:44.231Z,9.13
2022-10-22T10:41:29.038Z,12.43
2022-10-22T10:43:06.888Z,9.85
2022-10-22T10:44:59.610Z,7.47
2022-10-22T10:46:43.539Z,11.18
2022-10-22T10:48:48.448Z,8.55
2022-10-22T10:50:26.776Z,9.35
2022-10-22T10:52:06.491Z,8.55
2022-10-22T10:53:52.077Z,8.90
2022-10-22T10:55:29.807Z,9.15
2022-10-22T10:57:08.134Z,8.85
2022-10-22T10:58:49.963Z,7.35
2022-10-22T11:00:22.386Z,9.68
2022-10-22T11:02:09.825Z,10.40
2022-10-22T11:04:15.822Z,8.88
2022-10-22T11:05:54.002Z,8.27
2022-10-22T11:07:45.465Z,8.00
2022-10-22T11:09:24.570Z,11.93
2022-10-22T11:11:01.175Z,10.15
2022-10-22T11:12:39.637Z,8.70
2022-10-22T11:14:16.952Z,9.25
2022-10-22T11:15:55.541Z,8.30
2022-10-22T11:17:35.536Z,11.05
2022-10-22T11:19:22.962Z,11.30
2022-10-22T11:21:17.936Z,13.63
2022-10-22T11:23:18.280Z,7.18
2022-10-22T11:24:53.707Z,9.82
2022-10-22T11:26:37.134Z,9.95
2022-10-22T11:29:54.099Z,8.38
2022-10-22T11:31:26.835Z,9.35
2022-10-22T11:33:01.977Z,10.07
2022-10-22T11:34:42.300Z,5.85
2022-10-22T11:36:15.797Z,9.15
2022-10-22T11:37:48.287Z,10.50
2022-10-22T11:39:38.109Z,8.10
2022-10-22T11:42:47.908Z,7.70
2022-10-22T11:44:23.179Z,9.30
2022-10-22T11:46:01.977Z,8.82
2022-10-22T11:47:36.003Z,6.40
2022-10-22T11:49:19.557Z,7.57
2022-10-22T11:50:57.427Z,5.68
2022-10-22T11:52:40.773Z,5.95
2022-10-22T11:54:42.204Z,8.55
2022-10-22T11:56:24.925Z,10.32
2022-10-22T11:57:59.173Z,10.73
2022-10-22T11:59:39.338Z,9.32
2022-10-22T12:01:41.594Z,9.27
2022-10-22T12:03:17.844Z,10.15
2022-10-22T12:04:49.563Z,8.10
2022-10-22T12:06:25.088Z,5.65
2022-10-22T12:08:00.008Z,7.60
2022-10-22T12:09:34.265Z,9.35
2022-10-22T12:11:17.037Z,8.80
2022-10-22T12:12:55.781Z,7.90
2022-10-22T12:14:32.564Z,9.93
2022-10-22T12:16:05.331Z,7.78
2022-10-22T12:17:37.000Z,7.68
2022-10-22T12:19:14.929Z,6.82
2022-10-22T12:20:50.615Z,8.93
2022-10-22T12:22:27.213Z,8.05
2022-10-22T12:23:59.507Z,11.52
2022-10-22T12:25:35.606Z,7.15
2022-10-22T12:27:22.343Z,8.13
2022-10-22T12:28:58.589Z,9.30
2022-10-22T12:30:34.475Z,9.68
2022-10-22T12:32:06.471Z,9.23
2022-10-22T12:33:38.787Z,6.22
2022-10-22T12:35:16.755Z,11.93
2022-10-22T12:36:50.039Z,9.07
2022-10-22T12:38:25.458Z,11.00
2022-10-22T12:39:57.151Z,9.27
2022-10-22T12:41:34.476Z,11.23
2022-10-22T12:43:12.439Z,10.88
2022-10-22T12:44:44.938Z,8.80
2022-10-22T12:46:17.020Z,7.72
2022-10-22T12:47:50.256Z,9.90
2022-10-22T12:49:25.271Z,8.48
2022-10-22T12:50:59.422Z,6.38
2022-10-22T12:52:31.107Z,7.40
2022-10-22T12:54:08.246Z,7.68
2022-10-22T12:55:40.047Z,8.80
2022-10-22T12:57:14.685Z,6.88
2022-10-22T12:58:51.867Z,8.70
2022-10-22T13:00:26.765Z,8.05
2022-10-22T13:01:58.929Z,9.30
2022-10-22T13:03:34.778Z,7.57
2022-10-22T13:05:21.712Z,6.90
2022-10-22T13:07:05.977Z,10.18
2022-10-22T13:08:38.839Z,9.75
2022-10-22T13:10:20.073Z,8.02
2022-10-22T13:11:54.183Z,7.05
2022-10-22T13:13:30.975Z,8.55
2022-10-22T13:15:22.941Z,8.02
2022-10-22T13:17:12.138Z,6.97
2022-10-22T13:18:45.171Z,7.50
2022-10-22T13:20:20.340Z,8.18
2022-10-22T13:21:54.021Z,9.70
2022-10-22T13:23:28.085Z,6.90
2022-10-22T13:25:21.051Z,6.63
2022-10-22T13:26:54.528Z,5.43
2022-10-22T13:28:27.027Z,5.18
2022-10-22T13:30:02.858Z,7.38
2022-10-22T13:31:37.685Z,8.07
2022-10-22T13:33:28.769Z,5.55
2022-10-22T13:35:02.215Z,9.00
2022-10-22T13:36:34.023Z,7.30
2022-10-22T13:38:11.536Z,6.97
2022-10-22T13:39:43.144Z,5.45
2022-10-22T13:41:23.088Z,9.45
2022-10-22T13:42:56.078Z,8.85
2022-10-22T13:44:27.682Z,7.03
2022-10-22T13:46:00.301Z,6.50
2022-10-22T13:47:33.001Z,7.80
2022-10-22T13:49:04.818Z,7.88
2022-10-22T13:50:36.421Z,6.53
2022-10-22T13:52:10.598Z,8.60
2022-10-22T13:53:43.602Z,6.03
2022-10-22T13:55:17.800Z,8.25
2022-10-22T13:56:49.436Z,5.72
2022-10-22T13:58:26.589Z,6.07
2022-10-22T13:59:58.191Z,8.68
2022-10-22T14:01:30.093Z,4.13
2022-10-22T14:03:01.757Z,7.20
2022-10-22T14:04:38.035Z,8.90
2022-10-22T14:06:13.170Z,7.07
2022-10-22T14:07:45.322Z,7.25
2022-10-22T14:09:17.991Z,9.00
2022-10-22T14:10:49.604Z,9.65
2022-10-22T14:12:21.380Z,5.95
2022-10-22T14:13:54.361Z,8.82
2022-10-22T14:15:28.618Z,5.95
2022-10-22T14:17:00.252Z,8.45
2022-10-22T14:18:33.056Z,6.93
2022-10-22T14:20:05.250Z,7.07
2022-10-22T14:21:38.014Z,7.85
2022-10-22T14:23:14.590Z,8.75
2022-10-22T14:24:47.379Z,9.23
2022-10-22T14:26:22.530Z,8.90
2022-10-22T14:27:54.712Z,11.18
2022-10-22T14:29:27.686Z,9.80
2022-10-22T14:30:59.576Z,8.90
2022-10-22T14:32:31.320Z,6.97
2022-10-22T14:34:02.948Z,7.85
2022-10-22T14:35:34.614Z,11.07
2022-10-22T14:37:13.403Z,5.40
2022-10-22T14:38:46.895Z,7.13
2022-10-22T14:40:20.601Z,9.23
2022-10-22T14:41:52.350Z,5.95
2022-10-22T14:43:26.343Z,6.18
2022-10-22T14:44:59.304Z,6.43
2022-10-22T14:46:31.835Z,6.10
2022-10-22T14:48:03.903Z,7.90
2022-10-22T14:49:35.593Z,10.18
2022-10-22T14:51:07.774Z,8.13
2022-10-22T14:52:40.095Z,8.68
2022-10-22T14:54:12.217Z,8.23
2022-10-22T14:55:46.998Z,7.55
2022-10-22T14:57:18.622Z,8.10
2022-10-22T14:58:50.383Z,8.50
2022-10-22T15:00:23.771Z,8.70
2022-10-22T15:01:55.537Z,6.93
2022-10-22T15:03:27.165Z,8.32
2022-10-22T15:04:58.882Z,5.75
2022-10-22T15:06:30.704Z,7.10
2022-10-22T15:08:02.534Z,6.70
2022-10-22T15:09:34.141Z,7.30
2022-10-22T15:11:07.682Z,7.80
2022-10-22T15:12:39.480Z,7.13
2022-10-22T15:14:11.248Z,6.68
2022-10-22T15:15:44.285Z,8.55
2022-10-22T15:17:17.175Z,8.80
2022-10-22T15:18:48.950Z,8.82
2022-10-22T15:20:20.763Z,8.90
2022-10-22T15:21:52.574Z,7.88
2022-10-22T15:23:24.562Z,11.02
2022-10-22T15:24:56.176Z,13.85
2022-10-22T15:26:29.014Z,9.30
2022-10-22T15:28:04.649Z,9.02
2022-10-22T15:29:40.044Z,8.68
2022-10-22T15:31:14.968Z,8.50
2022-10-22T15:32:46.676Z,11.38
2022-10-22T15:34:20.719Z,8.43
2022-10-22T15:35:52.468Z,8.15
2022-10-22T15:37:24.247Z,8.02
2022-10-22T15:38:55.868Z,9.30
2022-10-22T15:40:27.745Z,6.60
2022-10-22T15:42:00.289Z,9.98
2022-10-22T15:43:32.280Z,7.72
2022-10-22T15:45:04.469Z,7.72
2022-10-22T15:46:37.569Z,10.35
2022-10-22T15:48:11.394Z,10.75
2022-10-22T15:49:45.792Z,10.07
2022-10-22T15:51:19.273Z,8.30
2022-10-22T15:52:50.966Z,7.63
2022-10-22T15:54:25.600Z,9.25
2022-10-22T15:55:57.177Z,12.38
2022-10-22T15:57:28.795Z,8.75
2022-10-22T15:59:04.827Z,8.82
2022-10-22T16:00:36.515Z,12.60
2022-10-22T16:02:10.705Z,9.63
2022-10-22T16:03:42.318Z,11.60
2022-10-22T16:05:13.986Z,9.50
2022-10-22T16:06:48.195Z,9.00
2022-10-22T16:08:19.878Z,10.13
2022-10-22T16:09:54.785Z,8.68
2022-10-22T16:11:28.837Z,7.93
2022-10-22T16:13:00.556Z,10.90
2022-10-22T16:14:32.197Z,14.00
2022-10-22T16:16:06.642Z,25.58
2022-10-22T16:17:39.654Z,10.55
2022-10-22T16:19:12.956Z,12.93
2022-10-22T16:20:44.706Z,11.48
2022-10-22T16:22:16.377Z,10.63
2022-10-22T16:23:48.319Z,9.80
2022-10-22T16:25:19.939Z,9.85
2022-10-22T16:26:53.075Z,12.15
2022-10-22T16:28:24.735Z,10.38
2022-10-22T16:29:56.375Z,11.15
2022-10-22T16:31:28.316Z,11.93
2022-10-22T16:33:03.424Z,15.23
2022-10-22T16:34:35.361Z,17.02
2022-10-22T16:36:07.917Z,12.90
2022-10-22T16:37:39.845Z,13.57
2022-10-22T16:39:12.244Z,14.82
2022-10-22T16:40:44.255Z,16.20
2022-10-22T16:42:15.957Z,17.08
2022-10-22T16:43:49.491Z,17.98
2022-10-22T16:45:21.113Z,14.48
2022-10-22T16:46:52.773Z,14.05
2022-10-22T16:48:25.805Z,13.35
2022-10-22T16:50:00.725Z,12.63
2022-10-22T16:51:32.787Z,15.82
2022-10-22T16:53:04.445Z,12.52
2022-10-22T16:54:36.188Z,13.95
2022-10-22T16:56:08.915Z,11.95
2022-10-22T16:57:40.823Z,12.93
2022-10-22T16:59:12.633Z,12.80
2022-10-22T17:00:44.329Z,14.90
2022-10-22T17:02:16.088Z,13.98
2022-10-22T17:03:49.065Z,12.18
2022-10-22T17:05:21.541Z,13.98
2022-10-22T17:06:53.202Z,14.40
2022-10-22T17:08:25.003Z,13.25
2022-10-22T17:09:56.635Z,12.13
2022-10-22T17:11:30.196Z,12.63
2022-10-22T17:13:02.229Z,12.75
2022-10-22T17:14:34.326Z,12.88
2022-10-22T17:16:08.917Z,10.82
2022-10-22T17:17:40.840Z,11.93
2022-10-22T17:19:15.834Z,11.73
2022-10-22T17:20:47.476Z,11.07
2022-10-22T17:22:19.129Z,13.68
2022-10-22T17:23:54.633Z,14.88
2022-10-22T17:25:36.112Z,17.63
2022-10-22T17:27:07.845Z,12.05
2022-10-22T17:28:39.613Z,11.52
2022-10-22T17:30:16.466Z,14.20
2022-10-22T17:31:48.081Z,15.35
2022-10-22T17:33:19.734Z,15.40
2022-10-22T17:34:52.740Z,12.68
2022-10-22T17:36:25.824Z,14.48
2022-10-22T17:37:57.438Z,14.52
2022-10-22T17:39:29.103Z,12.80
2022-10-22T17:41:04.343Z,16.70
2022-10-22T17:42:38.589Z,14.77
2022-10-22T17:44:12.178Z,16.10
2022-10-22T17:45:43.794Z,12.35
2022-10-22T17:47:15.531Z,13.35
2022-10-22T17:48:49.656Z,20.05
2022-10-22T17:50:22.746Z,10.85
2022-10-22T17:51:54.566Z,9.85
2022-10-22T17:53:26.356Z,10.88
2022-10-22T17:54:58.013Z,10.73
2022-10-22T17:56:30.296Z,11.57
2022-10-22T17:58:02.659Z,12.02
2022-10-22T17:59:35.161Z,12.10
2022-10-22T18:01:07.164Z,13.48
2022-10-22T18:02:39.922Z,13.50
2022-10-22T18:04:14.804Z,13.70
2022-10-22T18:05:47.866Z,14.30
2022-10-22T18:07:20.728Z,12.40
2022-10-22T18:10:29.786Z,13.07
2022-10-22T18:12:01.444Z,14.00
2022-10-22T18:13:33.305Z,13.70
2022-10-22T18:15:05.803Z,14.85
2022-10-22T18:16:37.604Z,13.75
2022-10-22T18:18:09.350Z,12.38
2022-10-22T18:19:41.027Z,12.02
2022-10-22T18:21:14.455Z,12.13
2022-10-22T18:22:48.961Z,12.77
2022-10-22T18:24:20.631Z,13.60
2022-10-22T18:25:52.582Z,12.65
2022-10-22T18:27:24.483Z,14.75
2022-10-22T18:28:57.444Z,15.30
2022-10-22T18:30:29.046Z,16.98
2022-10-22T18:32:00.665Z,13.75
2022-10-22T18:33:32.315Z,16.90
2022-10-22T18:35:04.804Z,14.23
2022-10-22T18:36:38.144Z,17.88
2022-10-22T18:38:10.623Z,15.77
2022-10-22T18:39:42.268Z,13.45
2022-10-22T18:41:13.897Z,15.73
2022-10-22T18:42:45.907Z,13.65
2022-10-22T18:44:17.996Z,12.80
2022-10-22T18:45:49.879Z,13.27
2022-10-22T18:47:21.563Z,12.40
2022-10-22T18:48:53.905Z,11.93
2022-10-22T18:50:25.613Z,12.30
2022-10-22T18:51:58.680Z,12.23
2022-10-22T18:53:30.786Z,17.30
2022-10-22T18:55:02.520Z,14.48
2022-10-22T18:56:34.131Z,15.13
2022-10-22T18:58:05.915Z,13.93
2022-10-22T18:59:37.665Z,15.70
2022-10-22T19:01:10.008Z,14.45
2022-10-22T19:02:42.813Z,17.10
2022-10-22T19:04:14.998Z,15.15
2022-10-22T19:05:49.157Z,15.10
2022-10-22T19:07:25.253Z,13.52
2022-10-22T19:08:56.972Z,14.73
2022-10-22T19:10:28.886Z,15.32
2022-10-22T19:12:01.028Z,17.23
2022-10-22T19:13:32.685Z,13.98
2022-10-22T19:15:05.177Z,15.57
2022-10-22T19:16:39.879Z,15.25
2022-10-22T19:18:13.233Z,17.83
2022-10-22T19:19:45.148Z,16.58
2022-10-22T19:21:17.140Z,15.68
2022-10-22T19:22:50.944Z,16.13
2022-10-22T19:24:22.694Z,16.58
2022-10-22T19:26:01.073Z,15.75
2022-10-22T19:27:32.717Z,15.02
2022-10-22T19:29:04.520Z,17.33
2022-10-22T19:30:40.052Z,17.52
2022-10-22T19:32:11.766Z,20.63
2022-10-22T19:33:43.474Z,13.80
2022-10-22T19:35:15.538Z,17.23
2022-10-22T19:36:51.495Z,19.88
2022-10-22T19:38:29.564Z,13.63
2022-10-22T19:40:01.551Z,13.00
2022-10-22T19:41:33.645Z,13.35
2022-10-22T19:43:05.250Z,15.13
2022-10-22T19:44:36.889Z,14.50
2022-10-22T19:46:08.723Z,14.60
2022-10-22T19:47:42.146Z,12.90
2022-10-22T19:49:16.578Z,11.82
2022-10-22T19:50:58.243Z,13.40
2022-10-22T19:52:29.823Z,14.98
2022-10-22T19:54:05.687Z,13.73
2022-10-22T19:55:42.697Z,12.77
2022-10-22T19:57:16.215Z,13.88
2022-10-22T19:58:47.989Z,12.75
2022-10-22T20:00:20.075Z,13.75
2022-10-22T20:01:51.756Z,12.65
2022-10-22T20:03:23.355Z,13.90
2022-10-22T20:04:54.980Z,14.90
2022-10-22T20:06:26.849Z,12.45
2022-10-22T20:07:59.184Z,15.55
2022-10-22T20:09:32.347Z,14.25
2022-10-22T20:11:04.629Z,13.70
2022-10-22T20:12:36.472Z,12.77
2022-10-22T20:14:08.192Z,12.82
2022-10-22T20:15:39.849Z,14.40
2022-10-22T20:17:12.679Z,13.30
2022-10-22T20:18:44.539Z,13.90
2022-10-22T20:20:16.426Z,13.45
2022-10-22T20:21:50.453Z,16.77
2022-10-22T20:23:22.207Z,14.50
2022-10-22T20:24:55.254Z,13.80
2022-10-22T20:26:28.401Z,15.68
2022-10-22T20:28:00.146Z,12.75
2022-10-22T20:29:32.015Z,14.45
2022-10-22T20:31:08.622Z,15.13
2022-10-22T20:32:40.937Z,14.45
2022-10-22T20:34:13.096Z,17.98
2022-10-22T20:35:44.895Z,15.13
2022-10-22T20:37:16.693Z,14.13
2022-10-22T20:38:51.856Z,14.38